Time;durP1;ratioP1;P1;durP2;ratioP2;P2;SDS_P1;SDS_P2;PMS_P1;PMS_P2;Temp;Humidity;BMP_temperature;BMP_pressure;BME280_temperature;BME280_humidity;BME280_pressure;Samples;Min_cycle;Max_cycle;Signal;HPM_P1;HPM_P2
2021/06/13 04:02:48;;;;;;;6.32;5.80;;;19.60;95.20;;;;;;5188966;23;83863;-89
2021/06/13 04:05:16;;;;;;;7.53;6.82;;;19.60;95.50;;;;;;4907543;28;86175;-90
2021/06/13 04:07:43;;;;;;;6.63;6.13;;;;;;;;;;4907895;28;85882;-90
2021/06/13 04:10:10;;;;;;;7.00;6.32;;;19.60;96.10;;;;;;4907850;28;83399;-90
2021/06/13 04:12:37;;;;;;;8.27;6.90;;;19.60;96.10;;;;;;4907175;28;86867;-90
2021/06/13 04:15:04;;;;;;;6.38;5.80;;;19.40;96.40;;;;;;4907033;28;86024;-89
2021/06/13 04:17:30;;;;;;;6.93;6.32;;;;;;;;;;4908882;28;82120;-89
2021/06/13 04:19:56;;;;;;;6.57;6.07;;;;;;;;;;4907881;28;83008;-89
2021/06/13 04:22:22;;;;;;;7.25;6.10;;;;;;;;;;4893029;28;85201;-90
2021/06/13 04:25:12;;;;;;;5.93;5.32;;;19.80;96.70;;;;;;4905073;28;85213;-90
2021/06/13 04:27:39;;;;;;;7.00;6.40;;;19.80;96.70;;;;;;4896832;28;86583;-90
2021/06/13 04:30:08;;;;;;;6.50;5.97;;;20.00;96.40;;;;;;4907718;28;83035;-90
2021/06/13 04:32:34;;;;;;;6.57;5.85;;;20.10;96.40;;;;;;4907882;28;85069;-90
2021/06/13 04:35:01;;;;;;;6.70;6.20;;;20.10;96.10;;;;;;4906704;28;86787;-90
2021/06/13 04:37:27;;;;;;;6.68;6.00;;;;;;;;;;4907333;28;85943;-90
2021/06/13 04:40:08;;;;;;;6.35;5.75;;;20.20;95.70;;;;;;4907492;28;83912;-90
2021/06/13 04:42:35;;;;;;;6.57;6.07;;;20.30;95.40;;;;;;4895822;28;85019;-90
2021/06/13 04:45:06;;;;;;;6.57;6.03;;;;;;;;;;4902207;28;85963;-91
2021/06/13 04:47:32;;;;;;;6.20;5.60;;;;;;;;;;4898309;28;85145;-90
2021/06/13 04:49:59;;;;;;;6.45;5.85;;;20.40;94.70;;;;;;4903970;28;83169;-90
2021/06/13 04:52:28;;;;;;;6.75;6.15;;;20.50;94.40;;;;;;4911775;28;85322;-93
2021/06/13 04:55:38;;;;;;;6.70;6.10;;;20.50;94.10;;;;;;4932054;28;85535;-92
2021/06/13 04:58:36;;;;;;;6.70;6.10;;;20.50;93.80;;;;;;4908609;28;85260;-91
2021/06/13 05:01:02;;;;;;;6.18;5.68;;;;;;;;;;4897739;28;83052;-90
2021/06/13 05:03:28;;;;;;;7.28;6.60;;;;;;;;;;4920428;28;85204;-89
2021/06/13 05:05:54;;;;;;;7.28;6.57;;;;;;;;;;4912088;28;83907;-90
2021/06/13 05:08:20;;;;;;;6.78;6.20;;;;;;;;;;4908823;28;85620;-91
2021/06/13 05:11:01;;;;;;;8.38;6.78;;;20.40;93.30;;;;;;4909421;28;82457;-92
2021/06/13 05:13:27;;;;;;;6.95;6.32;;;;;;;;;;4909768;28;84837;-92
2021/06/13 05:15:53;;;;;;;8.10;6.68;;;;;;;;;;4924897;28;86106;-91
2021/06/13 05:18:19;;;;;;;7.72;6.82;;;;;;;;;;4918339;28;84938;-91
2021/06/13 05:20:52;;;;;;;8.90;7.20;;;;;;;;;;4910793;28;83179;-92
2021/06/13 05:23:18;;;;;;;7.60;6.90;;;;;;;;;;4906974;28;83491;-90
2021/06/13 05:25:48;;;;;;;7.40;6.70;;;20.40;92.40;;;;;;4890609;28;85482;-90
2021/06/13 05:28:14;;;;;;;8.23;7.38;;;;;;;;;;4887614;28;87098;-90
2021/06/13 05:30:40;;;;;;;8.57;7.43;;;;;;;;;;4893916;28;82566;-90
2021/06/13 05:33:07;;;;;;;8.32;6.85;;;;;;;;;;4894321;28;85270;-91
2021/06/13 05:35:33;;;;;;;7.93;7.22;;;;;;;;;;4894532;28;85280;-90
2021/06/13 05:37:59;;;;;;;8.38;7.60;;;;;;;;;;4894124;28;86329;-89
2021/06/13 05:40:36;;;;;;;8.57;7.70;;;20.90;91.00;;;;;;4894294;28;83717;-89
2021/06/13 05:43:03;;;;;;;7.43;6.75;;;21.00;91.40;;;;;;4894581;28;84924;-90
2021/06/13 05:45:31;;;;;;;7.93;6.97;;;21.10;90.90;;;;;;4910137;28;86799;-90
2021/06/13 05:47:58;;;;;;;7.88;7.13;;;;;;;;;;4889678;28;85821;-90
2021/06/13 05:50:26;;;;;;;8.85;7.40;;;21.40;90.60;;;;;;4909791;28;82712;-90
2021/06/13 05:52:52;;;;;;;9.32;7.22;;;;;;;;;;4879405;28;84841;-91
2021/06/13 05:55:19;;;;;;;8.15;7.13;;;21.60;90.10;;;;;;4907782;28;84840;-91
2021/06/13 05:57:46;;;;;;;8.20;7.47;;;21.60;89.60;;;;;;4891744;28;84958;-90
2021/06/13 06:00:16;;;;;;;7.72;6.70;;;21.60;89.90;;;;;;4892251;28;83228;-90
2021/06/13 06:02:42;;;;;;;9.15;7.88;;;21.60;90.20;;;;;;4910590;23;86228;-85
2021/06/13 06:05:10;;;;;;;8.52;7.13;;;21.90;90.10;;;;;;4905799;28;82165;-85
2021/06/13 06:07:35;;;;;;;8.32;7.63;;;21.90;90.30;;;;;;4905190;28;81738;-85
2021/06/13 06:10:02;;;;;;;10.55;8.20;;;21.90;90.00;;;;;;4899544;28;82519;-85
2021/06/13 06:12:28;;;;;;;8.23;7.43;;;21.90;90.10;;;;;;4903617;28;81547;-85
2021/06/13 06:14:53;;;;;;;7.82;6.82;;;22.10;89.10;;;;;;4903089;28;83239;-85
2021/06/13 06:17:19;;;;;;;7.63;6.93;;;22.30;87.40;;;;;;4906115;28;82262;-85
2021/06/13 06:19:45;;;;;;;7.80;7.00;;;22.20;88.00;;;;;;4903352;28;81879;-85
2021/06/13 06:22:11;;;;;;;7.68;7.00;;;22.30;86.90;;;;;;4910565;28;81699;-86
2021/06/13 06:24:37;;;;;;;8.05;7.35;;;22.50;86.80;;;;;;4907025;28;82532;-85
2021/06/13 06:27:03;;;;;;;8.43;7.63;;;22.70;84.60;;;;;;4909558;28;82396;-85
2021/06/13 06:29:29;;;;;;;8.18;7.38;;;22.70;85.00;;;;;;4906998;28;81872;-84
2021/06/13 06:31:55;;;;;;;8.82;7.55;;;22.70;84.40;;;;;;4923856;28;81882;-85
2021/06/13 06:34:21;;;;;;;7.57;6.88;;;22.70;84.90;;;;;;4911721;28;82254;-83
2021/06/13 06:36:47;;;;;;;8.40;7.15;;;22.90;84.20;;;;;;4908831;28;82971;-83
2021/06/13 06:39:15;;;;;;;7.25;6.65;;;22.90;84.30;;;;;;4915116;28;82465;-83
2021/06/13 06:41:41;;;;;;;7.68;6.97;;;23.00;84.30;;;;;;4921240;28;81583;-84
2021/06/13 06:44:08;;;;;;;8.55;7.65;;;23.20;83.00;;;;;;4909670;28;82682;-82
2021/06/13 06:46:35;;;;;;;8.52;7.65;;;23.10;83.50;;;;;;4908085;28;82058;-85
2021/06/13 06:49:01;;;;;;;8.10;7.30;;;23.00;81.70;;;;;;4909060;28;81910;-85
2021/06/13 06:51:27;;;;;;;8.00;7.20;;;23.00;82.30;;;;;;4908949;28;82671;-85
2021/06/13 06:53:53;;;;;;;8.63;7.80;;;23.00;82.30;;;;;;4911314;28;81751;-85
2021/06/13 06:56:19;;;;;;;8.57;7.78;;;22.90;82.10;;;;;;4909759;28;81822;-87
2021/06/13 06:58:45;;;;;;;8.38;7.57;;;22.90;82.60;;;;;;4916375;28;81922;-85
2021/06/13 07:01:11;;;;;;;8.48;7.60;;;23.10;82.40;;;;;;4906799;28;82207;-86
2021/06/13 07:03:36;;;;;;;8.38;7.55;;;23.10;83.00;;;;;;4896056;28;83046;-86
2021/06/13 07:06:02;;;;;;;8.02;7.22;;;23.30;81.10;;;;;;4888062;28;82897;-87
2021/06/13 07:08:28;;;;;;;7.90;7.20;;;23.20;81.60;;;;;;4896430;28;81866;-85
2021/06/13 07:10:55;;;;;;;8.18;7.38;;;23.20;81.70;;;;;;4897304;28;81961;-84
2021/06/13 07:13:21;;;;;;;8.40;7.60;;;23.40;82.00;;;;;;4896948;28;82425;-84
2021/06/13 07:15:47;;;;;;;8.82;8.02;;;23.60;81.90;;;;;;4895200;28;82847;-85
2021/06/13 07:18:13;;;;;;;8.18;7.38;;;23.70;80.50;;;;;;4897592;28;82260;-85
2021/06/13 07:20:38;;;;;;;8.73;7.93;;;23.80;80.00;;;;;;4896382;28;81102;-86
2021/06/13 07:23:05;;;;;;;9.32;8.43;;;;;;;;;;4895379;28;82219;-84
2021/06/13 07:25:30;;;;;;;8.68;7.30;;;23.80;79.20;;;;;;4896940;28;81918;-84
2021/06/13 07:27:56;;;;;;;8.40;7.65;;;24.00;79.80;;;;;;4897542;28;82636;-85
2021/06/13 07:30:22;;;;;;;13.73;9.88;;;24.20;79.70;;;;;;4893449;28;83097;-75
2021/06/13 07:32:49;;;;;;;8.13;7.43;;;24.70;78.10;;;;;;4888187;28;82184;-74
2021/06/13 07:35:16;;;;;;;8.63;7.85;;;24.80;77.10;;;;;;4888683;28;83547;-76
2021/06/13 07:37:42;;;;;;;8.75;7.75;;;25.50;76.90;;;;;;4888186;28;81938;-76
2021/06/13 07:40:11;;;;;;;9.15;8.23;;;25.50;75.20;;;;;;4889279;28;82734;-76
2021/06/13 07:42:37;;;;;;;8.90;8.00;;;26.00;73.30;;;;;;4888371;28;82240;-75
2021/06/13 07:45:06;;;;;;;9.07;7.85;;;25.50;72.30;;;;;;4884428;28;82095;-75
2021/06/13 07:47:32;;;;;;;9.10;8.18;;;25.90;72.30;;;;;;4884221;28;81941;-75
2021/06/13 07:49:58;;;;;;;9.38;8.48;;;26.20;72.50;;;;;;4892797;28;81984;-75
2021/06/13 07:52:25;;;;;;;9.10;7.20;;;25.80;72.40;;;;;;4888150;28;82821;-75
2021/06/13 07:54:51;;;;;;;7.85;7.15;;;26.80;72.10;;;;;;4888191;28;82795;-75
2021/06/13 07:57:16;;;;;;;8.93;8.07;;;26.80;69.80;;;;;;4889202;28;81812;-75
2021/06/13 08:00:01;;;;;;;8.90;8.00;;;26.10;69.80;;;;;;4888822;28;83103;-75
2021/06/13 08:02:27;;;;;;;11.30;8.52;;;26.00;67.90;;;;;;4887465;28;83068;-74
2021/06/13 08:04:55;;;;;;;8.00;6.93;;;26.60;68.60;;;;;;4879173;28;82119;-74
2021/06/13 08:07:21;;;;;;;8.90;7.93;;;26.20;70.00;;;;;;4887943;28;81896;-74
2021/06/13 08:09:46;;;;;;;9.15;6.53;;;26.30;69.40;;;;;;4886765;28;81798;-74
2021/06/13 08:12:12;;;;;;;9.20;8.18;;;26.70;68.60;;;;;;4869271;28;81644;-74
2021/06/13 08:14:38;;;;;;;8.65;7.85;;;26.60;67.90;;;;;;4872708;28;82140;-74
2021/06/13 08:17:04;;;;;;;10.20;9.07;;;27.20;67.60;;;;;;4876270;28;82890;-74
2021/06/13 08:19:30;;;;;;;9.73;8.75;;;27.50;66.40;;;;;;4887597;28;82685;-75
2021/06/13 08:21:56;;;;;;;8.95;8.15;;;27.60;65.50;;;;;;4876057;28;83230;-75
2021/06/13 08:24:22;;;;;;;9.07;7.53;;;;;;;;;;4884104;28;82768;-75
2021/06/13 08:26:48;;;;;;;10.18;7.75;;;27.50;64.30;;;;;;4886733;28;81901;-74
2021/06/13 08:29:14;;;;;;;7.88;7.15;;;27.60;65.60;;;;;;4886676;28;81879;-74
2021/06/13 08:31:40;;;;;;;8.63;7.80;;;27.60;65.00;;;;;;4874679;28;82195;-74
2021/06/13 08:34:06;;;;;;;9.15;7.65;;;27.30;65.20;;;;;;4879978;28;81906;-74
2021/06/13 08:36:32;;;;;;;8.77;7.93;;;27.50;65.80;;;;;;4880220;28;82657;-74
2021/06/13 08:38:58;;;;;;;8.30;7.60;;;27.30;64.30;;;;;;4874871;28;82101;-73
2021/06/13 08:41:25;;;;;;;9.82;8.73;;;27.00;63.50;;;;;;4876281;28;83594;-73
2021/06/13 08:43:51;;;;;;;8.60;7.80;;;27.00;64.50;;;;;;4882370;28;82094;-73
2021/06/13 08:46:20;;;;;;;7.82;7.03;;;27.00;65.60;;;;;;4875892;28;81906;-73
2021/06/13 08:48:47;;;;;;;8.35;7.50;;;27.10;64.10;;;;;;4879882;28;82072;-74
2021/06/13 08:51:13;;;;;;;8.45;7.55;;;27.00;64.70;;;;;;4878285;28;82581;-74
2021/06/13 08:53:45;;;;;;;7.88;7.10;;;;;;;;;;4878820;28;81778;-74
2021/06/13 08:56:12;;;;;;;7.13;6.53;;;27.10;64.10;;;;;;4878797;28;81768;-73
2021/06/13 08:58:38;;;;;;;7.38;6.65;;;27.20;64.50;;;;;;4885040;28;81631;-75
2021/06/13 09:01:10;;;;;;;7.60;6.90;;;27.70;63.30;;;;;;4882339;28;84974;-74
2021/06/13 09:03:36;;;;;;;8.95;7.22;;;27.70;63.70;;;;;;4875385;28;84332;-73
2021/06/13 09:06:03;;;;;;;6.50;5.90;;;27.90;62.80;;;;;;4875668;28;82923;-74
2021/06/13 09:08:43;;;;;;;8.88;7.70;;;28.60;60.50;;;;;;4872944;28;82078;-74
2021/06/13 09:11:23;;;;;;;7.93;7.15;;;28.80;59.70;;;;;;4884731;28;81896;-74
2021/06/13 09:13:49;;;;;;;8.27;7.47;;;29.00;60.00;;;;;;4873992;28;83570;-73
2021/06/13 09:16:14;;;;;;;7.28;6.65;;;29.60;58.80;;;;;;4874325;28;81894;-75
2021/06/13 09:18:43;;;;;;;8.48;7.68;;;30.00;57.90;;;;;;4884726;28;81899;-74
2021/06/13 09:21:14;;;;;;;9.13;8.23;;;30.30;56.70;;;;;;4880947;28;82468;-76
2021/06/13 09:23:42;;;;;;;8.30;7.50;;;30.50;56.70;;;;;;4877326;28;83939;-73
2021/06/13 09:26:16;;;;;;;7.75;7.15;;;31.20;53.70;;;;;;4883988;28;81951;-75
2021/06/13 09:28:43;;;;;;;8.38;7.68;;;31.50;54.00;;;;;;4877790;28;82255;-73
2021/06/13 09:31:27;;;;;;;7.90;7.35;;;32.40;53.20;;;;;;4877744;28;83683;-75
2021/06/13 09:33:55;;;;;;;8.82;8.02;;;32.90;51.50;;;;;;4878700;28;82165;-75
2021/06/13 09:36:24;;;;;;;7.72;7.13;;;33.30;51.40;;;;;;4874507;28;81866;-73
2021/06/13 09:39:04;;;;;;;9.20;8.32;;;34.00;50.00;;;;;;4869930;28;82382;-73
2021/06/13 09:41:30;;;;;;;8.30;7.68;;;34.70;48.30;;;;;;4876883;28;82133;-75
2021/06/13 09:44:03;;;;;;;8.50;7.80;;;35.70;47.40;;;;;;4877554;28;83032;-74
2021/06/13 09:46:32;;;;;;;9.05;7.45;;;36.80;46.10;;;;;;4881956;28;82197;-73
2021/06/13 09:49:03;;;;;;;8.25;7.65;;;38.20;43.90;;;;;;4886102;28;81444;-77
2021/06/13 09:51:33;;;;;;;8.15;7.55;;;39.20;42.10;;;;;;4881111;28;82246;-74
2021/06/13 09:54:00;;;;;;;10.52;7.97;;;39.70;40.50;;;;;;4884131;28;82001;-74
2021/06/13 09:56:44;;;;;;;8.02;7.20;;;40.40;39.50;;;;;;4881006;28;83105;-74
2021/06/13 09:59:14;;;;;;;9.52;8.70;;;40.60;38.20;;;;;;4876673;28;82165;-75
2021/06/13 10:01:52;;;;;;;8.93;8.13;;;40.60;38.50;;;;;;4879391;28;82213;-75
2021/06/13 10:04:17;;;;;;;8.45;7.68;;;41.30;37.60;;;;;;4875774;28;86653;-74
2021/06/13 10:06:46;;;;;;;8.57;7.78;;;41.60;37.50;;;;;;4883046;28;82549;-75
2021/06/13 10:09:13;;;;;;;8.83;8.03;;;42.30;36.60;;;;;;4885125;28;82068;-76
2021/06/13 10:11:39;;;;;;;9.15;8.35;;;43.00;36.10;;;;;;4881257;28;84206;-82
2021/06/13 10:14:19;;;;;;;8.60;7.90;;;43.30;35.10;;;;;;4889661;28;82093;-84
2021/06/13 10:16:54;;;;;;;6.38;5.97;;;43.80;34.10;;;;;;4886369;28;81963;-84
2021/06/13 10:19:22;;;;;;;6.90;6.40;;;44.30;33.50;;;;;;4883490;28;81899;-84
2021/06/13 10:21:53;;;;;;;8.30;7.80;;;44.50;32.60;;;;;;4894066;28;82589;-83
2021/06/13 10:24:23;;;;;;;9.18;8.48;;;45.10;32.40;;;;;;4887297;28;87419;-84
2021/06/13 10:27:13;;;;;;;9.50;8.80;;;45.40;31.80;;;;;;4894044;28;81886;-82
2021/06/13 10:29:41;;;;;;;9.15;8.55;;;44.90;31.40;;;;;;4896257;28;82607;-84
2021/06/13 10:32:08;;;;;;;9.33;8.70;;;45.10;32.60;;;;;;4886540;28;82235;-85
2021/06/13 10:34:35;;;;;;;9.23;8.63;;;45.10;31.50;;;;;;4895143;28;82007;-84
2021/06/13 10:37:09;;;;;;;9.30;8.60;;;44.40;32.40;;;;;;4894881;28;81943;-85
2021/06/13 10:39:37;;;;;;;10.60;9.80;;;44.30;31.80;;;;;;4891344;28;81460;-84
2021/06/13 10:42:08;;;;;;;9.00;8.40;;;44.60;31.50;;;;;;4893962;28;84222;-84
2021/06/13 10:44:53;;;;;;;9.73;9.02;;;45.30;31.40;;;;;;4891861;28;81500;-84
2021/06/13 10:47:22;;;;;;;8.63;8.13;;;45.50;31.20;;;;;;4899165;28;82928;-84
2021/06/13 10:49:49;;;;;;;8.63;8.13;;;46.00;31.70;;;;;;4901897;28;81904;-85
2021/06/13 10:52:23;;;;;;;8.82;8.13;;;45.70;30.90;;;;;;4888318;28;81504;-84
2021/06/13 10:54:52;;;;;;;8.95;8.45;;;46.00;30.70;;;;;;4897219;28;82254;-85
2021/06/13 10:57:18;;;;;;;8.50;7.90;;;46.50;30.40;;;;;;4901460;28;81794;-84
2021/06/13 10:59:54;;;;;;;9.15;8.40;;;46.90;30.00;;;;;;4902436;28;81879;-84
2021/06/13 11:02:22;;;;;;;8.68;8.18;;;46.80;30.00;;;;;;4901831;28;81639;-82
2021/06/13 11:04:52;;;;;;;8.90;8.40;;;46.60;29.50;;;;;;4902368;28;82198;-82
2021/06/13 11:07:27;;;;;;;8.77;8.13;;;46.90;29.40;;;;;;4900118;28;81923;-85
2021/06/13 11:10:09;;;;;;;8.80;8.30;;;46.80;29.30;;;;;;4896521;28;81854;-85
2021/06/13 11:12:47;;;;;;;13.75;12.65;;;46.60;29.70;;;;;;4896674;28;83975;-84
2021/06/13 11:15:38;;;;;;;31.45;28.65;;;47.20;28.90;;;;;;4896002;28;82663;-84
2021/06/13 11:18:14;;;;;;;12.88;12.07;;;46.40;30.00;;;;;;4892540;28;82545;-85
2021/06/13 11:20:51;;;;;;;8.90;8.40;;;46.60;29.40;;;;;;4896830;28;82632;-82
2021/06/13 11:23:22;;;;;;;8.90;8.18;;;46.60;29.20;;;;;;4897641;28;81937;-85
2021/06/13 11:25:53;;;;;;;8.80;8.23;;;46.80;28.90;;;;;;4892532;28;81976;-84
2021/06/13 11:28:27;;;;;;;9.40;8.70;;;46.20;29.60;;;;;;4898965;28;81883;-84
2021/06/13 11:31:16;;;;;;;8.50;8.00;;;46.60;28.90;;;;;;4894774;28;81568;-84
2021/06/13 11:33:55;;;;;;;9.05;8.55;;;46.80;28.80;;;;;;4885017;28;82305;-84
2021/06/13 11:36:25;;;;;;;8.75;8.15;;;46.80;29.00;;;;;;4885389;28;82217;-84
2021/06/13 11:39:06;;;;;;;8.23;7.72;;;46.50;28.90;;;;;;4890128;28;83160;-84
2021/06/13 11:41:36;;;;;;;8.68;8.18;;;47.00;28.70;;;;;;4893753;28;82043;-84
2021/06/13 11:44:05;;;;;;;9.50;8.50;;;47.60;28.70;;;;;;4894129;28;82411;-84
2021/06/13 11:46:33;;;;;;;8.88;8.27;;;47.60;28.20;;;;;;4891742;28;82316;-84
2021/06/13 11:49:00;;;;;;;9.02;8.52;;;48.00;28.10;;;;;;4888234;28;81726;-85
2021/06/13 11:51:27;;;;;;;7.97;7.38;;;48.00;28.50;;;;;;4891181;28;81877;-84
2021/06/13 11:54:05;;;;;;;8.27;7.88;;;48.00;28.70;;;;;;4895657;28;82235;-84
2021/06/13 11:56:34;;;;;;;8.40;8.00;;;48.30;28.20;;;;;;4894582;28;82259;-84
2021/06/13 11:59:05;;;;;;;9.20;8.65;;;48.20;27.90;;;;;;4886143;28;81586;-86
2021/06/13 12:01:34;;;;;;;8.50;8.00;;;48.40;27.90;;;;;;4893378;28;82319;-84
2021/06/13 12:04:00;;;;;;;8.80;8.30;;;48.10;28.30;;;;;;4889050;28;83170;-84
2021/06/13 12:06:26;;;;;;;8.45;7.95;;;48.00;28.50;;;;;;4898599;28;82275;-84
2021/06/13 12:08:53;;;;;;;7.72;7.32;;;47.80;28.10;;;;;;4896507;28;81985;-84
2021/06/13 12:11:30;;;;;;;8.75;8.15;;;47.90;28.10;;;;;;4892401;28;82001;-84
2021/06/13 12:13:56;;;;;;;8.68;8.18;;;47.20;28.70;;;;;;4894656;28;82057;-84
2021/06/13 12:16:22;;;;;;;8.35;7.85;;;47.20;28.60;;;;;;4897609;28;82671;-85
2021/06/13 12:18:58;;;;;;;8.60;8.10;;;46.50;29.00;;;;;;4901174;28;81748;-85
2021/06/13 12:21:28;;;;;;;8.50;8.00;;;46.80;29.30;;;;;;4900282;28;81819;-83
2021/06/13 12:24:02;;;;;;;8.55;7.95;;;47.20;28.40;;;;;;4885799;28;82528;-84
2021/06/13 12:29:25;;;;;;;8.65;8.05;;;47.60;28.50;;;;;;4899343;28;82989;-84
2021/06/13 12:31:51;;;;;;;8.30;7.75;;;47.20;28.30;;;;;;4882745;28;82049;-84
2021/06/13 12:34:18;;;;;;;8.48;7.82;;;46.80;28.70;;;;;;4897120;28;82116;-83
2021/06/13 12:36:54;;;;;;;8.20;7.80;;;46.80;28.40;;;;;;4897579;28;82052;-84
2021/06/13 12:39:30;;;;;;;7.72;7.32;;;46.90;28.10;;;;;;4889616;28;81555;-84
2021/06/13 12:42:12;;;;;;;8.13;7.72;;;47.10;28.00;;;;;;4884959;28;82703;-85
2021/06/13 12:44:40;;;;;;;7.82;7.32;;;46.80;27.80;;;;;;4887513;28;82503;-83
2021/06/13 12:47:08;;;;;;;8.10;7.70;;;46.80;27.90;;;;;;4896678;28;82063;-84
2021/06/13 12:49:41;;;;;;;7.78;7.25;;;46.90;27.70;;;;;;4894754;28;81544;-85
2021/06/13 12:52:11;;;;;;;7.65;7.25;;;46.20;28.10;;;;;;4888045;28;82961;-85
2021/06/13 12:54:37;;;;;;;7.97;7.47;;;45.80;27.80;;;;;;4894953;28;83853;-84
2021/06/13 12:57:04;;;;;;;9.60;7.55;;;45.50;28.30;;;;;;4884842;28;83284;-82
2021/06/13 12:59:29;;;;;;;8.15;7.50;;;45.30;28.60;;;;;;4892660;28;81791;-84
2021/06/13 13:01:55;;;;;;;7.30;6.90;;;44.80;28.20;;;;;;4892458;28;82155;-83
2021/06/13 13:04:44;;;;;;;7.68;7.18;;;44.50;28.80;;;;;;4884216;28;86708;-83
2021/06/13 13:07:11;;;;;;;7.82;7.35;;;44.20;28.00;;;;;;4891834;28;81987;-84
2021/06/13 13:10:12;;;;;;;7.72;7.22;;;43.70;28.10;;;;;;4896454;28;82176;-83
2021/06/13 13:12:40;;;;;;;7.22;6.72;;;43.50;28.40;;;;;;4889641;28;81669;-83
2021/06/13 13:15:07;;;;;;;6.78;6.38;;;42.80;29.20;;;;;;4898074;28;82323;-83
2021/06/13 13:17:34;;;;;;;7.05;6.65;;;42.80;29.80;;;;;;4890045;28;82030;-83
2021/06/13 13:20:11;;;;;;;6.90;6.50;;;42.50;28.80;;;;;;4892818;28;82697;-84
2021/06/13 13:22:47;;;;;;;7.22;6.72;;;42.00;29.70;;;;;;4896599;28;81929;-83
2021/06/13 13:25:14;;;;;;;6.80;6.45;;;41.70;29.40;;;;;;4887766;28;82794;-83
2021/06/13 13:27:40;;;;;;;6.60;6.30;;;41.00;30.00;;;;;;4895662;28;84543;-83
2021/06/13 13:30:24;;;;;;;6.70;6.30;;;41.20;30.00;;;;;;4893804;28;82150;-83
2021/06/13 13:32:56;;;;;;;6.78;6.38;;;41.30;31.00;;;;;;4897372;28;82259;-84
2021/06/13 13:35:36;;;;;;;6.57;6.18;;;41.10;31.00;;;;;;4896100;28;82431;-85
2021/06/13 13:38:03;;;;;;;7.10;6.63;;;41.00;29.60;;;;;;4891932;28;82486;-85
2021/06/13 13:40:29;;;;;;;7.07;6.68;;;40.30;29.80;;;;;;4888838;28;81643;-86
2021/06/13 13:43:07;;;;;;;6.10;5.80;;;40.20;30.20;;;;;;4895156;28;81928;-83
2021/06/13 13:45:35;;;;;;;6.30;6.00;;;39.90;29.50;;;;;;4896834;28;82750;-83
2021/06/13 13:48:13;;;;;;;6.70;6.30;;;39.70;29.40;;;;;;4896542;28;82282;-84
2021/06/13 13:50:53;;;;;;;6.18;5.82;;;39.60;29.50;;;;;;4899407;28;81724;-81
2021/06/13 13:53:24;;;;;;;5.60;5.30;;;39.60;30.10;;;;;;4894021;28;81601;-85
2021/06/13 13:55:59;;;;;;;5.78;5.43;;;39.10;30.50;;;;;;4893293;28;81836;-85
2021/06/13 13:58:27;;;;;;;6.10;5.63;;;39.00;30.90;;;;;;4897030;28;82081;-83
2021/06/13 14:00:54;;;;;;;5.85;5.50;;;38.80;31.20;;;;;;4892618;28;81860;-84
2021/06/13 14:03:31;;;;;;;5.72;5.43;;;38.60;30.20;;;;;;4894420;28;81735;-84
2021/06/13 14:05:57;;;;;;;5.60;5.30;;;38.40;32.20;;;;;;4898450;28;83455;-83
2021/06/13 14:08:23;;;;;;;6.10;5.72;;;38.00;30.00;;;;;;4913258;28;83371;-84
2021/06/13 14:10:51;;;;;;;5.70;5.30;;;37.50;30.00;;;;;;4890603;28;82908;-83
2021/06/13 14:13:17;;;;;;;5.65;5.25;;;37.10;31.50;;;;;;4890750;28;81692;-83
2021/06/13 14:15:43;;;;;;;5.70;5.20;;;36.90;31.90;;;;;;4897960;28;82481;-83
2021/06/13 14:18:10;;;;;;;5.80;5.40;;;36.70;31.60;;;;;;4892560;28;82021;-82
2021/06/13 14:20:36;;;;;;;6.07;5.68;;;36.60;30.80;;;;;;4890837;28;82157;-82
2021/06/13 14:23:03;;;;;;;5.55;5.25;;;36.50;31.80;;;;;;4889437;28;82100;-84
2021/06/13 14:25:30;;;;;;;5.30;5.00;;;36.30;31.40;;;;;;4898284;28;81938;-84
2021/06/13 14:27:55;;;;;;;5.22;4.93;;;36.10;31.90;;;;;;4893149;28;82818;-84
2021/06/13 14:30:22;;;;;;;5.30;5.00;;;35.70;32.10;;;;;;4896311;28;83067;-84
2021/06/13 14:32:49;;;;;;;5.60;5.30;;;35.60;32.60;;;;;;4895954;28;81964;-84
2021/06/13 14:35:15;;;;;;;5.47;5.18;;;35.40;33.20;;;;;;4892717;28;83552;-82
2021/06/13 14:37:41;;;;;;;5.60;5.20;;;35.00;33.70;;;;;;4902781;28;82279;-82
2021/06/13 14:40:11;;;;;;;5.80;5.40;;;34.50;33.90;;;;;;4894937;28;82185;-83
2021/06/13 14:42:37;;;;;;;5.72;5.43;;;34.30;33.60;;;;;;4893871;28;82136;-83
2021/06/13 14:45:05;;;;;;;5.35;5.05;;;34.30;34.40;;;;;;4900143;28;82383;-83
2021/06/13 14:47:30;;;;;;;5.50;5.13;;;34.10;34.20;;;;;;4893522;28;83874;-83
2021/06/13 14:49:56;;;;;;;5.20;4.90;;;33.90;34.30;;;;;;4895477;28;81845;-85
2021/06/13 14:52:21;;;;;;;5.85;5.45;;;33.70;34.40;;;;;;4891178;28;81650;-84
2021/06/13 14:54:47;;;;;;;5.25;4.95;;;33.40;34.80;;;;;;4891994;28;81961;-84
2021/06/13 14:57:13;;;;;;;5.60;5.20;;;33.30;34.90;;;;;;4894009;28;82874;-84
2021/06/13 14:59:39;;;;;;;5.47;5.18;;;33.10;35.70;;;;;;4889469;28;83915;-84
2021/06/13 15:02:05;;;;;;;5.50;5.10;;;33.10;36.60;;;;;;4893122;28;81683;-83
2021/06/13 15:04:31;;;;;;;5.50;5.10;;;33.00;36.60;;;;;;4896994;28;82119;-84
2021/06/13 15:06:58;;;;;;;4.97;4.68;;;32.80;35.50;;;;;;4894782;28;82047;-84
2021/06/13 15:09:24;;;;;;;5.00;4.70;;;32.80;36.30;;;;;;4893039;28;82269;-85
2021/06/13 15:12:03;;;;;;;5.07;4.70;;;32.50;36.40;;;;;;4891223;28;83178;-84
2021/06/13 15:14:29;;;;;;;5.95;5.00;;;32.40;37.20;;;;;;4899006;28;82768;-83
2021/06/13 15:16:54;;;;;;;5.07;4.78;;;32.20;36.10;;;;;;4896659;28;82578;-83
2021/06/13 15:19:20;;;;;;;4.75;4.45;;;32.20;36.20;;;;;;4894268;28;81542;-84
2021/06/13 15:21:46;;;;;;;5.25;4.95;;;32.10;35.90;;;;;;4897042;28;82141;-83
2021/06/13 15:24:12;;;;;;;5.13;4.72;;;32.00;36.60;;;;;;4901107;28;83313;-83
2021/06/13 15:26:38;;;;;;;5.60;5.20;;;31.90;37.30;;;;;;4903084;28;82086;-81
2021/06/13 15:29:14;;;;;;;5.35;5.05;;;31.80;36.80;;;;;;4899992;28;82045;-83
2021/06/13 15:31:42;;;;;;;5.40;5.10;;;31.70;37.00;;;;;;4896927;28;81826;-83
2021/06/13 15:34:15;;;;;;;5.20;4.80;;;31.60;37.70;;;;;;4898065;28;81789;-83
2021/06/13 15:36:44;;;;;;;5.35;4.85;;;31.60;37.10;;;;;;4897691;28;82237;-83
2021/06/13 15:39:10;;;;;;;5.25;4.85;;;31.30;37.60;;;;;;4896707;28;81799;-84
2021/06/13 15:41:35;;;;;;;5.50;5.10;;;31.20;37.40;;;;;;4879974;28;82135;-85
2021/06/13 15:44:01;;;;;;;5.10;4.70;;;31.10;37.90;;;;;;4889911;28;81987;-84
2021/06/13 15:46:27;;;;;;;5.45;5.07;;;30.90;38.20;;;;;;4894710;28;81966;-85
2021/06/13 15:48:53;;;;;;;5.25;4.85;;;30.80;38.10;;;;;;4893426;28;83125;-83
2021/06/13 15:51:18;;;;;;;6.68;4.70;;;30.60;38.90;;;;;;4896589;28;83061;-84
2021/06/13 15:53:54;;;;;;;5.55;4.88;;;30.50;38.40;;;;;;4893005;28;82545;-84
2021/06/13 15:56:26;;;;;;;5.40;5.00;;;30.40;38.90;;;;;;4884226;28;82061;-85
2021/06/13 15:58:54;;;;;;;5.25;4.88;;;30.40;38.60;;;;;;4890841;28;81888;-83
2021/06/13 16:01:21;;;;;;;5.20;4.70;;;30.20;39.40;;;;;;4889824;28;81911;-83
2021/06/13 16:03:47;;;;;;;4.38;4.07;;;30.10;39.30;;;;;;4883606;28;83203;-81
2021/06/13 16:06:13;;;;;;;5.47;4.25;;;29.90;39.80;;;;;;4885867;28;81245;-83
2021/06/13 16:08:39;;;;;;;4.80;4.40;;;29.90;40.10;;;;;;4888324;28;82783;-82
2021/06/13 16:11:05;;;;;;;5.03;4.63;;;29.70;39.80;;;;;;4893293;28;81773;-83
2021/06/13 16:13:31;;;;;;;5.07;4.68;;;29.70;40.10;;;;;;4896841;28;83622;-83
2021/06/13 16:15:57;;;;;;;5.05;4.65;;;29.70;40.60;;;;;;4890449;28;83317;-84
2021/06/13 16:18:24;;;;;;;5.10;4.70;;;29.60;40.60;;;;;;4891596;28;81949;-84
2021/06/13 16:20:50;;;;;;;5.63;4.95;;;29.50;40.50;;;;;;4887689;28;81901;-84
2021/06/13 16:23:16;;;;;;;5.10;4.70;;;29.30;40.40;;;;;;4896811;28;82162;-84
2021/06/13 16:25:41;;;;;;;5.78;4.70;;;29.20;41.00;;;;;;4891158;28;82219;-83
2021/06/13 16:28:07;;;;;;;12.60;11.40;;;29.00;39.70;;;;;;4889591;28;81863;-82
2021/06/13 16:30:33;;;;;;;6.75;6.13;;;28.90;40.00;;;;;;4892362;28;82796;-84
2021/06/13 16:32:58;;;;;;;7.90;5.50;;;28.80;40.60;;;;;;4885360;28;82670;-83
2021/06/13 16:35:24;;;;;;;5.25;4.80;;;28.70;40.80;;;;;;4887411;28;83951;-83
2021/06/13 16:37:50;;;;;;;5.82;5.30;;;28.60;41.70;;;;;;4887254;28;82768;-83
2021/06/13 16:40:16;;;;;;;5.00;4.60;;;28.60;41.20;;;;;;4888249;28;82128;-84
2021/06/13 16:42:43;;;;;;;5.18;4.78;;;28.50;41.90;;;;;;4887923;28;81633;-83
2021/06/13 16:45:09;;;;;;;4.85;4.53;;;28.40;42.60;;;;;;4891928;28;82025;-82
2021/06/13 16:47:35;;;;;;;4.93;4.53;;;28.20;42.20;;;;;;4887651;28;81971;-82
2021/06/13 16:50:03;;;;;;;4.85;4.55;;;28.20;42.00;;;;;;4890478;28;83272;-84
2021/06/13 16:52:28;;;;;;;4.90;4.50;;;28.10;42.60;;;;;;4885919;28;84021;-83
2021/06/13 16:54:55;;;;;;;5.10;4.70;;;28.00;42.60;;;;;;4887684;28;81508;-83
2021/06/13 16:57:21;;;;;;;4.95;4.65;;;27.80;42.30;;;;;;4890244;28;81766;-84
2021/06/13 16:59:46;;;;;;;5.05;4.60;;;27.60;42.60;;;;;;4893696;28;82979;-80
2021/06/13 17:02:12;;;;;;;5.70;5.30;;;27.50;42.90;;;;;;4887397;28;83195;-80
2021/06/13 17:04:39;;;;;;;5.00;4.60;;;27.40;42.90;;;;;;4891552;28;83181;-83
2021/06/13 17:07:06;;;;;;;5.20;4.82;;;27.30;42.40;;;;;;4886848;28;81876;-81
2021/06/13 17:09:31;;;;;;;4.90;4.57;;;27.20;43.50;;;;;;4880618;28;81763;-81